Terminal Aerodrome Forecast
Issued by NWS

Home | Current Version | Previous Version | Text Only | Print | Product List | Glossary On
Versions: 1 2 3 4 5 6 7 8 9 10 11 12 13 14 15 16 17 18 19 20 21 22 23 24 25 26
000
FTUS42 KMFL 191256 AAA
TAFOPF
TAF AMD
KOPF 191256Z 1913/2012 19005KT P6SM -SHRA FEW010 BKN035 BKN090
     FM191500 22010KT P6SM SCT025 BKN050
     FM191800 24010G20KT P6SM BKN050
     FM200300 26007KT P6SM FEW025 SCT250=

USA.gov is the U.S. government's official web portal to all federal, state and local government web resources and services.